»·PEaware :: AAL492 KPSP-KLAS

AAL492 :: KPSP-KLAS

FLIGHT INFORMATION

Flight Status: Arrived
Operator:
American Airlines
More flights by this operator :: More flights under this callsign
Pilot: Aker J. (16898)
Aircraft: BOEING 757-200
(B752)
More flights by this aircraft type
Origin: KPSP Palm Springs Intl
United States
Destination: KLAS McCarran Intl
United States
More flights between these airports :: More routes between these airports
Route: CATH1 PSP TNP KEPEC6
File this flight plan on PilotEdge
Remarks:
Altitude:
(Current/Filed)
23,000ft
Speed:
(Current/Filed)
450kts
Departed: 23-Apr-18 12:42 PM
Arrived: 23-Apr-18 01:33 PM
Distance/Time
Traveled:
151nm/0:51
Distance/Time
To Go:
Arrived

Flight Plot

Page will automatically refresh every two minutes.

Flight plan parsing failed; only flown route is shown


Map Options




Map Legend


Flown Route
Filed Route
Departure Airport
Arrival Airport
Navaid (VOR, NDB)
Fix

Horizontal Profiles

Position Reports

Time Latitude Longitude Heading Altitude Ground
Speed
23-Apr-18 12:12 33.823463 -116.505854 253 419ft 0kts
23-Apr-18 12:13 33.823463 -116.505854 253 419ft 0kts
23-Apr-18 12:14 33.823463 -116.505854 253 419ft 0kts
23-Apr-18 12:15 33.823463 -116.505854 253 419ft 0kts
23-Apr-18 12:16 33.823463 -116.505854 253 419ft 0kts
23-Apr-18 12:17 33.823463 -116.505854 253 419ft 0kts
23-Apr-18 12:18 33.823463 -116.505854 253 419ft 0kts
23-Apr-18 12:19 33.823463 -116.505854 253 419ft 0kts
23-Apr-18 12:20 33.823463 -116.505854 253 419ft 0kts
23-Apr-18 12:21 33.823463 -116.505854 253 419ft 0kts
23-Apr-18 12:22 33.823463 -116.505854 253 419ft 0kts
23-Apr-18 12:23 33.823463 -116.505854 253 419ft 0kts
23-Apr-18 12:24 33.823463 -116.505854 253 419ft 0kts
23-Apr-18 12:25 33.823463 -116.505854 253 419ft 0kts
23-Apr-18 12:26 33.823466 -116.505842 253 419ft 0kts
23-Apr-18 12:27 33.823466 -116.505842 253 419ft 0kts
23-Apr-18 12:28 33.823466 -116.505842 253 419ft 0kts
23-Apr-18 12:29 33.823466 -116.505842 253 419ft 0kts
23-Apr-18 12:30 33.823466 -116.505842 253 419ft 0kts
23-Apr-18 12:31 33.823466 -116.505843 253 419ft 0kts
23-Apr-18 12:32 33.823451 -116.505926 258 419ft 0kts
23-Apr-18 12:33 33.823451 -116.505926 258 419ft 0kts
23-Apr-18 12:34 33.823451 -116.505926 258 419ft 0kts
23-Apr-18 12:35 33.823585 -116.505612 217 419ft 2kts
23-Apr-18 12:36 33.824079 -116.505587 141 420ft 1kts
23-Apr-18 12:37 33.824116 -116.505623 142 420ft 0kts
23-Apr-18 12:38 33.823890 -116.505418 142 419ft 9kts
23-Apr-18 12:39 33.819467 -116.500666 143 407ft 25kts
23-Apr-18 12:40 33.818853 -116.498343 8 402ft 7kts
23-Apr-18 12:41 33.836232 -116.513444 323 664ft 156kts
23-Apr-18 12:42 33.870009 -116.547078 322 3070ft 167kts
23-Apr-18 12:43 33.914813 -116.560456 49 4062ft 251kts
23-Apr-18 12:44 33.900112 -116.490056 130 8031ft 264kts
23-Apr-18 12:45 33.861891 -116.413660 121 11879ft 275kts
23-Apr-18 12:46 33.825947 -116.331119 121 14948ft 297kts
23-Apr-18 12:47 33.813368 -116.235725 72 17646ft 327kts
23-Apr-18 12:48 33.870796 -116.145602 52 20191ft 352kts
23-Apr-18 12:49 33.937218 -116.043047 53 21259ft 423kts
23-Apr-18 12:50 34.014694 -115.922430 53 22379ft 487kts
23-Apr-18 12:51 34.098957 -115.790605 52 23121ft 500kts
23-Apr-18 12:52 34.195194 -115.677435 41 23115ft 498kts
23-Apr-18 12:53 34.297400 -115.566086 39 23114ft 493kts
23-Apr-18 12:54 34.417373 -115.490033 19 23127ft 500kts
23-Apr-18 12:55 34.549049 -115.432109 18 24091ft 507kts
23-Apr-18 12:56 34.681470 -115.371741 19 23626ft 482kts
23-Apr-18 12:57 34.795982 -115.329665 3 22979ft 415kts
23-Apr-18 12:58 34.892413 -115.365005 330 23067ft 341kts
23-Apr-18 12:59 34.980528 -115.407149 336 22795ft 335kts
23-Apr-18 13:00 35.070112 -115.443603 339 20787ft 344kts
23-Apr-18 13:01 35.157269 -115.476440 340 18824ft 332kts
23-Apr-18 13:02 35.244457 -115.510479 340 16796ft 333kts
23-Apr-18 13:03 35.329733 -115.543931 340 15130ft 309kts
23-Apr-18 13:04 35.413017 -115.576727 341 14411ft 325kts
23-Apr-18 13:05 35.498324 -115.610384 341 13686ft 316kts
23-Apr-18 13:06 35.582440 -115.643658 341 13018ft 317kts
23-Apr-18 13:07 35.663091 -115.668352 6 13042ft 323kts
23-Apr-18 13:08 35.733931 -115.605203 47 13008ft 315kts
23-Apr-18 13:09 35.813319 -115.573702 3 13011ft 310kts
23-Apr-18 13:10 35.902447 -115.568174 2 12997ft 310kts
23-Apr-18 13:11 35.974277 -115.538005 63 12870ft 283kts
23-Apr-18 13:12 36.007212 -115.447412 70 11497ft 289kts
23-Apr-18 13:13 36.027664 -115.355570 96 10561ft 269kts
23-Apr-18 13:14 36.021961 -115.265532 97 9180ft 265kts
23-Apr-18 13:15 36.015783 -115.177389 96 8042ft 250kts
23-Apr-18 13:16 36.010013 -115.092522 96 8033ft 247kts
23-Apr-18 13:17 36.004894 -115.007682 96 8019ft 247kts
23-Apr-18 13:18 35.999830 -114.923160 96 8007ft 247kts
23-Apr-18 13:19 35.994691 -114.838363 96 8007ft 247kts
23-Apr-18 13:20 35.989179 -114.753943 96 8007ft 246kts
23-Apr-18 13:21 35.983609 -114.669959 96 8007ft 246kts
23-Apr-18 13:22 36.011563 -114.603406 7 8006ft 243kts
23-Apr-18 13:23 36.065433 -114.634820 279 8008ft 237kts
23-Apr-18 13:24 36.072448 -114.714999 274 8004ft 225kts
23-Apr-18 13:25 36.077381 -114.794340 278 6600ft 235kts
23-Apr-18 13:26 36.082455 -114.873227 260 4912ft 221kts
23-Apr-18 13:27 36.074192 -114.943128 273 4080ft 183kts
23-Apr-18 13:28 36.074325 -115.000216 271 3154ft 152kts
23-Apr-18 13:29 36.073739 -115.047852 270 2840ft 133kts
23-Apr-18 13:30 36.073615 -115.093692 271 2537ft 137kts
23-Apr-18 13:31 36.073724 -115.140949 270 2092ft 119kts
23-Apr-18 13:32 36.074409 -115.154326 295 2139ft 3kts
23-Apr-18 13:33 36.076930 -115.157917 329 2149ft 20kts
23-Apr-18 13:34 36.081585 -115.157080 85 2133ft 16kts

Navigation Log

Ident Type
Flight plan parsing failed, navigation log unavailable